createdAt,value
2019-04-21T00:00:29.819Z,16.23
2019-04-21T00:03:08.844Z,16.03
2019-04-21T00:05:52.678Z,17.50
2019-04-21T00:08:27.541Z,17.00
2019-04-21T00:11:01.388Z,16.93
2019-04-21T00:13:21.126Z,16.90
2019-04-21T00:15:40.713Z,16.63
2019-04-21T00:18:40.661Z,17.77
2019-04-21T00:21:15.079Z,17.00
2019-04-21T00:23:53.850Z,16.17
2019-04-21T00:26:25.365Z,17.03
2019-04-21T00:29:03.973Z,16.70
2019-04-21T00:31:24.549Z,17.30
2019-04-21T00:33:41.611Z,17.70
2019-04-21T00:36:16.908Z,17.23
2019-04-21T00:39:17.089Z,16.30
2019-04-21T00:41:29.598Z,15.93
2019-04-21T00:43:57.247Z,15.97
2019-04-21T00:46:30.738Z,15.40
2019-04-21T00:49:02.114Z,16.03
2019-04-21T00:51:47.860Z,16.20
2019-04-21T00:54:18.463Z,16.07
2019-04-21T00:56:45.962Z,16.43
2019-04-21T00:59:16.361Z,16.83
2019-04-21T01:01:43.674Z,16.73
2019-04-21T01:04:20.662Z,17.10
2019-04-21T01:06:48.048Z,16.97
2019-04-21T01:09:14.474Z,17.40
2019-04-21T01:11:50.544Z,17.23
2019-04-21T01:14:32.757Z,16.53
2019-04-21T01:16:56.068Z,16.37
2019-04-21T01:19:18.248Z,17.20
2019-04-21T01:21:31.188Z,16.43
2019-04-21T01:24:08.195Z,16.57
2019-04-21T01:26:43.767Z,16.70
2019-04-21T01:29:22.367Z,16.03
2019-04-21T01:31:48.436Z,16.23
2019-04-21T01:34:27.148Z,15.60
2019-04-21T01:36:54.145Z,16.10
2019-04-21T01:39:30.837Z,16.80
2019-04-21T01:41:59.065Z,17.13
2019-04-21T01:44:36.083Z,15.57
2019-04-21T01:46:58.635Z,17.13
2019-04-21T01:49:25.826Z,16.43
2019-04-21T01:52:08.849Z,17.13
2019-04-21T01:55:00.181Z,17.13
2019-04-21T01:57:42.593Z,17.47
2019-04-21T02:00:13.563Z,18.47
2019-04-21T02:02:59.918Z,15.40
2019-04-21T02:05:34.379Z,16.97
2019-04-21T02:07:55.220Z,18.10
2019-04-21T02:10:35.279Z,17.30
2019-04-21T02:12:56.703Z,17.23
2019-04-21T02:15:36.013Z,16.93
2019-04-21T02:17:59.937Z,17.37
2019-04-21T02:20:25.784Z,16.70
2019-04-21T02:23:31.541Z,17.30
2019-04-21T02:25:38.512Z,18.23
2019-04-21T02:28:12.477Z,17.23
2019-04-21T02:31:05.900Z,18.03
2019-04-21T02:33:28.024Z,17.53
2019-04-21T02:36:04.799Z,16.73
2019-04-21T02:38:32.162Z,17.27
2019-04-21T02:43:38.864Z,16.37
2019-04-21T02:45:56.118Z,17.27
2019-04-21T02:51:15.259Z,17.23
2019-04-21T02:53:37.459Z,17.13
2019-04-21T02:58:34.848Z,17.13
2019-04-21T03:01:24.343Z,15.53
2019-04-21T03:04:00.681Z,15.73
2019-04-21T03:06:54.181Z,17.03
2019-04-21T03:09:29.752Z,15.93
2019-04-21T03:11:56.047Z,17.90
2019-04-21T03:14:40.805Z,17.37
2019-04-21T03:16:47.213Z,16.60
2019-04-21T03:19:33.007Z,16.10
2019-04-21T03:22:02.609Z,16.60
2019-04-21T03:24:29.009Z,16.73
2019-04-21T03:27:22.315Z,15.93
2019-04-21T03:29:29.527Z,15.43
2019-04-21T03:32:16.764Z,15.97
2019-04-21T03:39:37.483Z,15.63
2019-04-21T03:42:07.533Z,15.93
2019-04-21T03:44:32.286Z,15.53
2019-04-21T03:47:08.431Z,15.17
2019-04-21T03:52:42.461Z,15.60
2019-04-21T03:54:49.158Z,15.33
2019-04-21T03:59:38.847Z,15.60
2019-04-21T04:05:13.102Z,14.97
2019-04-21T04:07:59.470Z,16.13
2019-04-21T04:10:39.159Z,15.50
2019-04-21T04:13:00.822Z,16.10
2019-04-21T04:15:45.691Z,15.63
2019-04-21T04:18:00.876Z,14.53
2019-04-21T04:20:30.349Z,13.70
2019-04-21T04:23:02.939Z,15.93
2019-04-21T04:28:08.255Z,14.10
2019-04-21T04:30:38.239Z,16.47
2019-04-21T04:33:09.047Z,16.70
2019-04-21T04:38:20.116Z,15.80
2019-04-21T04:40:57.497Z,15.10
2019-04-21T04:45:56.465Z,14.70
2019-04-21T04:48:24.128Z,16.67
2019-04-21T04:50:53.535Z,17.57
2019-04-21T04:56:01.296Z,16.20
2019-04-21T04:58:29.692Z,15.50
2019-04-21T05:01:08.599Z,16.77
2019-04-21T05:03:40.175Z,16.53
2019-04-21T05:06:42.565Z,17.70
2019-04-21T05:14:09.962Z,19.90
2019-04-21T05:23:55.829Z,15.53
2019-04-21T05:26:27.481Z,16.40
2019-04-21T05:28:53.885Z,15.87
2019-04-21T05:34:42.640Z,16.77
2019-04-21T05:37:47.328Z,15.30
2019-04-21T05:40:38.903Z,15.27
2019-04-21T05:43:21.314Z,13.83
2019-04-21T05:45:53.560Z,13.30
2019-04-21T05:51:00.184Z,15.93
2019-04-21T05:53:46.813Z,15.20
2019-04-21T05:56:03.383Z,16.13
2019-04-21T05:58:34.869Z,27.00
2019-04-21T06:01:16.624Z,53.90
2019-04-21T06:03:44.861Z,39.43
2019-04-21T06:08:42.324Z,23.60
2019-04-21T06:11:23.883Z,19.90
2019-04-21T06:13:51.899Z,14.10
2019-04-21T06:16:13.981Z,14.90
2019-04-21T06:18:53.161Z,14.27
2019-04-21T06:21:16.477Z,14.33
2019-04-21T06:23:47.747Z,14.47
2019-04-21T06:28:54.557Z,13.57
2019-04-21T06:31:41.538Z,13.77
2019-04-21T06:34:13.162Z,14.83
2019-04-21T06:36:39.634Z,14.70
2019-04-21T06:39:17.915Z,15.77
2019-04-21T06:41:34.387Z,14.57
2019-04-21T06:44:07.580Z,14.97
2019-04-21T06:46:35.187Z,14.67
2019-04-21T06:49:02.596Z,14.27
2019-04-21T06:51:35.742Z,14.90
2019-04-21T06:54:09.623Z,13.47
2019-04-21T06:56:41.034Z,14.67
2019-04-21T06:59:21.118Z,15.30
2019-04-21T07:01:42.483Z,14.57
2019-04-21T07:04:18.863Z,14.97
2019-04-21T07:11:44.101Z,14.17
2019-04-21T07:16:52.564Z,14.90
2019-04-21T07:19:21.390Z,14.47
2019-04-21T07:22:03.324Z,14.70
2019-04-21T07:26:51.238Z,14.90
2019-04-21T07:29:20.641Z,14.27
2019-04-21T07:31:59.208Z,14.73
2019-04-21T07:34:27.088Z,14.70
2019-04-21T07:39:16.851Z,14.87
2019-04-21T07:41:49.774Z,13.77
2019-04-21T07:44:20.943Z,15.17
2019-04-21T07:46:47.014Z,14.17
2019-04-21T07:50:18.018Z,14.50
2019-04-21T07:52:39.444Z,14.60
2019-04-21T07:55:22.067Z,15.17
2019-04-21T07:57:39.426Z,15.60
2019-04-21T08:00:22.693Z,14.57
2019-04-21T08:02:46.470Z,15.20
2019-04-21T08:10:16.098Z,15.50
2019-04-21T08:12:41.898Z,15.70
2019-04-21T08:15:23.531Z,16.07
2019-04-21T08:17:46.866Z,14.90
2019-04-21T08:20:19.884Z,15.67
2019-04-21T08:22:51.081Z,15.63
2019-04-21T08:25:19.589Z,16.03
2019-04-21T08:27:55.467Z,15.20
2019-04-21T08:30:26.247Z,16.30
2019-04-21T08:33:02.415Z,15.37
2019-04-21T08:37:55.225Z,16.47
2019-04-21T08:40:31.576Z,15.63
2019-04-21T08:42:54.982Z,16.30
2019-04-21T08:45:35.365Z,16.67
2019-04-21T08:48:04.576Z,16.27
2019-04-21T08:50:34.245Z,15.85
2019-04-21T08:53:22.584Z,16.80
2019-04-21T08:55:58.647Z,15.45
2019-04-21T08:58:42.561Z,15.78
2019-04-21T09:01:39.767Z,15.58
2019-04-21T09:04:21.166Z,16.42
2019-04-21T09:06:57.236Z,16.20
2019-04-21T09:11:44.480Z,16.07
2019-04-21T09:14:13.124Z,15.75
2019-04-21T09:16:44.353Z,17.00
2019-04-21T09:19:21.451Z,16.65
2019-04-21T09:21:52.960Z,17.67
2019-04-21T09:24:18.896Z,17.65
2019-04-21T09:26:48.108Z,18.62
2019-04-21T09:29:10.846Z,17.30
2019-04-21T09:31:37.493Z,15.13
2019-04-21T09:34:04.450Z,17.85
2019-04-21T09:36:38.928Z,15.48
2019-04-21T09:39:12.963Z,18.15
2019-04-21T09:41:39.083Z,19.12
2019-04-21T09:44:15.068Z,17.52
2019-04-21T09:46:45.329Z,16.23
2019-04-21T09:49:12.524Z,17.82
2019-04-21T09:51:41.606Z,17.65
2019-04-21T09:54:20.157Z,17.30
2019-04-21T09:56:51.063Z,16.70
2019-04-21T09:59:20.569Z,17.70
2019-04-21T10:01:55.006Z,17.07
2019-04-21T10:04:14.476Z,16.93
2019-04-21T10:06:43.589Z,16.35
2019-04-21T10:09:17.317Z,14.58
2019-04-21T10:11:44.075Z,16.52
2019-04-21T10:14:13.874Z,18.75
2019-04-21T10:17:12.938Z,19.15
2019-04-21T10:19:42.210Z,18.73
2019-04-21T10:22:12.654Z,18.95
2019-04-21T10:24:42.480Z,17.75
2019-04-21T10:27:13.305Z,17.70
2019-04-21T10:29:44.611Z,18.55
2019-04-21T10:32:13.588Z,19.07
2019-04-21T10:34:43.363Z,18.50
2019-04-21T10:37:13.326Z,19.00
2019-04-21T10:39:43.024Z,18.85
2019-04-21T10:42:13.182Z,18.87
2019-04-21T10:44:43.177Z,18.87
2019-04-21T10:47:12.851Z,19.82
2019-04-21T10:49:44.621Z,19.00
2019-04-21T10:52:19.382Z,18.17
2019-04-21T10:55:11.240Z,18.45
2019-04-21T10:57:31.002Z,18.07
2019-04-21T11:00:01.392Z,20.57
2019-04-21T11:02:46.499Z,18.52
2019-04-21T11:05:16.746Z,18.55
2019-04-21T11:08:01.090Z,20.00
2019-04-21T11:10:22.267Z,18.85
2019-04-21T11:12:52.674Z,17.57
2019-04-21T11:15:23.223Z,18.80
2019-04-21T11:17:52.625Z,19.57
2019-04-21T11:20:22.789Z,18.73
2019-04-21T11:22:53.526Z,20.20
2019-04-21T11:25:24.141Z,19.85
2019-04-21T11:27:53.445Z,20.72
2019-04-21T11:30:23.379Z,19.65
2019-04-21T11:32:53.127Z,20.00
2019-04-21T11:35:23.425Z,19.50
2019-04-21T11:37:59.401Z,18.20
2019-04-21T11:40:25.463Z,19.32
2019-04-21T11:42:55.758Z,18.77
2019-04-21T11:45:32.539Z,18.92
2019-04-21T11:48:12.440Z,19.00
2019-04-21T11:50:43.260Z,18.25
2019-04-21T11:53:12.749Z,17.75
2019-04-21T11:55:45.362Z,18.30
2019-04-21T11:58:16.043Z,17.70
2019-04-21T12:00:47.413Z,17.27
2019-04-21T12:03:17.357Z,19.55
2019-04-21T12:05:48.236Z,17.60
2019-04-21T12:08:24.937Z,17.27
2019-04-21T12:10:49.276Z,17.52
2019-04-21T12:13:18.640Z,18.55
2019-04-21T12:15:49.113Z,16.60
2019-04-21T12:18:19.700Z,15.78
2019-04-21T12:20:49.416Z,13.40
2019-04-21T12:23:18.554Z,13.50
2019-04-21T12:25:49.477Z,15.53
2019-04-21T12:28:19.716Z,15.18
2019-04-21T12:30:52.062Z,14.40
2019-04-21T12:33:40.325Z,14.70
2019-04-21T12:36:09.803Z,14.00
2019-04-21T12:38:48.214Z,14.00
2019-04-21T12:41:10.796Z,14.47
2019-04-21T12:43:40.078Z,13.53
2019-04-21T12:46:09.822Z,15.95
2019-04-21T12:48:39.988Z,14.00
2019-04-21T12:51:10.124Z,14.23
2019-04-21T12:53:39.520Z,13.30
2019-04-21T12:56:09.486Z,13.18
2019-04-21T12:58:39.529Z,10.53
2019-04-21T13:01:09.373Z,13.48
2019-04-21T13:03:39.748Z,12.63
2019-04-21T13:06:09.972Z,13.98
2019-04-21T13:08:50.951Z,13.15
2019-04-21T13:11:11.357Z,13.18
2019-04-21T13:13:42.047Z,12.45
2019-04-21T13:16:11.767Z,11.97
2019-04-21T13:18:41.707Z,12.13
2019-04-21T13:21:12.069Z,11.70
2019-04-21T13:23:41.286Z,13.60
2019-04-21T13:26:11.410Z,12.85
2019-04-21T13:28:40.603Z,13.08
2019-04-21T13:31:09.896Z,11.95
2019-04-21T13:33:39.892Z,11.90
2019-04-21T13:36:09.701Z,10.65
2019-04-21T13:38:50.844Z,10.28
2019-04-21T13:41:32.582Z,12.95
2019-04-21T13:44:10.995Z,11.90
2019-04-21T13:46:40.689Z,9.73
2019-04-21T13:49:11.603Z,9.18
2019-04-21T13:51:41.637Z,10.23
2019-04-21T13:54:11.557Z,7.87
2019-04-21T13:56:40.704Z,9.55
2019-04-21T13:59:10.554Z,9.35
2019-04-21T14:01:39.779Z,9.13
2019-04-21T14:04:09.524Z,8.23
2019-04-21T14:06:40.474Z,8.35
2019-04-21T14:09:10.897Z,9.73
2019-04-21T14:11:41.141Z,8.65
2019-04-21T14:14:10.577Z,9.68
2019-04-21T14:16:40.206Z,7.97
2019-04-21T14:19:09.743Z,8.30
2019-04-21T14:21:41.285Z,6.85
2019-04-21T14:24:10.850Z,7.67
2019-04-21T14:26:40.567Z,7.60
2019-04-21T14:29:11.401Z,8.13
2019-04-21T14:31:41.842Z,6.95
2019-04-21T14:34:12.122Z,6.60
2019-04-21T14:36:41.326Z,6.60
2019-04-21T14:39:12.501Z,7.58
2019-04-21T14:41:42.190Z,6.97
2019-04-21T14:44:11.516Z,7.12
2019-04-21T14:46:55.327Z,7.53
2019-04-21T14:50:03.054Z,7.45
2019-04-21T14:52:35.174Z,8.18
2019-04-21T14:55:18.546Z,8.65
2019-04-21T14:57:47.654Z,7.97
2019-04-21T15:00:19.022Z,7.83
2019-04-21T15:02:49.629Z,8.65
2019-04-21T15:05:19.695Z,7.40
2019-04-21T15:07:49.171Z,8.45
2019-04-21T15:10:23.557Z,7.10
2019-04-21T15:12:49.820Z,8.50
2019-04-21T15:15:20.090Z,8.13
2019-04-21T15:17:49.524Z,8.05
2019-04-21T15:20:20.185Z,7.08
2019-04-21T15:22:50.393Z,6.35
2019-04-21T15:25:20.409Z,7.58
2019-04-21T15:27:50.903Z,7.35
2019-04-21T15:30:20.780Z,6.97
2019-04-21T15:32:50.606Z,8.40
2019-04-21T15:35:19.719Z,6.22
2019-04-21T15:37:49.870Z,9.10
2019-04-21T15:40:31.513Z,6.83
2019-04-21T15:42:52.511Z,8.80
2019-04-21T15:45:22.013Z,9.45
2019-04-21T15:47:51.892Z,9.43
2019-04-21T15:50:23.150Z,9.13
2019-04-21T15:52:54.149Z,9.60
2019-04-21T15:55:41.333Z,10.45
2019-04-21T15:58:34.414Z,10.05
2019-04-21T16:01:14.491Z,8.85
2019-04-21T16:03:44.832Z,9.75
2019-04-21T16:06:13.946Z,8.43
2019-04-21T16:08:47.601Z,8.23
2019-04-21T16:11:15.671Z,7.97
2019-04-21T16:13:45.885Z,9.73
2019-04-21T16:16:15.028Z,9.03
2019-04-21T16:18:45.827Z,9.68
2019-04-21T16:21:15.931Z,8.35
2019-04-21T16:23:46.625Z,8.80
2019-04-21T16:26:17.026Z,10.03
2019-04-21T16:28:46.932Z,9.18
2019-04-21T16:31:16.489Z,9.63
2019-04-21T16:33:47.055Z,7.58
2019-04-21T16:36:17.110Z,8.45
2019-04-21T16:38:47.366Z,8.73
2019-04-21T16:41:18.160Z,7.90
2019-04-21T16:43:48.985Z,8.48
2019-04-21T16:46:19.646Z,7.90
2019-04-21T16:48:49.669Z,7.72
2019-04-21T16:51:20.059Z,7.12
2019-04-21T16:53:53.614Z,7.03
2019-04-21T16:56:27.063Z,8.05
2019-04-21T16:59:00.798Z,9.40
2019-04-21T17:01:31.727Z,8.13
2019-04-21T17:04:02.370Z,7.62
2019-04-21T17:06:33.121Z,8.00
2019-04-21T17:09:03.001Z,7.45
2019-04-21T17:11:35.325Z,7.37
2019-04-21T17:14:03.543Z,7.67
2019-04-21T17:17:16.146Z,6.85
2019-04-21T17:19:13.518Z,6.03
2019-04-21T17:21:34.373Z,7.58
2019-04-21T17:24:04.428Z,5.97
2019-04-21T17:26:37.216Z,7.30
2019-04-21T17:29:04.991Z,7.17
2019-04-21T17:31:34.125Z,6.83
2019-04-21T17:34:10.300Z,6.75
2019-04-21T17:36:34.906Z,7.15
2019-04-21T17:39:04.839Z,7.05
2019-04-21T17:41:41.580Z,7.15
2019-04-21T17:44:04.576Z,6.30
2019-04-21T17:46:43.864Z,6.50
2019-04-21T17:49:05.229Z,6.35
2019-04-21T17:52:00.507Z,5.85
2019-04-21T17:54:42.929Z,6.70
2019-04-21T17:57:26.679Z,6.72
2019-04-21T18:00:15.189Z,7.00
2019-04-21T18:02:35.388Z,6.90
2019-04-21T18:05:03.990Z,6.87
2019-04-21T18:07:34.969Z,6.83
2019-04-21T18:10:04.730Z,7.03
2019-04-21T18:12:30.407Z,8.05
2019-04-21T18:14:59.265Z,7.60
2019-04-21T18:17:18.423Z,7.62
2019-04-21T18:19:51.315Z,7.53
2019-04-21T18:22:49.189Z,7.60
2019-04-21T18:25:32.025Z,7.67
2019-04-21T18:27:50.547Z,7.80
2019-04-21T18:30:49.912Z,7.80
2019-04-21T18:33:26.626Z,8.15
2019-04-21T18:36:08.603Z,7.87
2019-04-21T18:39:06.903Z,8.13
2019-04-21T18:41:17.431Z,10.00
2019-04-21T18:44:19.443Z,10.98
2019-04-21T18:46:52.534Z,13.18
2019-04-21T18:49:07.719Z,19.12
2019-04-21T18:52:04.934Z,20.62
2019-04-21T18:54:47.221Z,23.52
2019-04-21T18:57:07.897Z,22.05
2019-04-21T18:59:36.135Z,24.87
2019-04-21T19:02:08.086Z,25.57
2019-04-21T19:04:35.142Z,26.07
2019-04-21T19:07:18.269Z,27.05
2019-04-21T19:10:09.942Z,28.50
2019-04-21T19:12:35.043Z,27.05
2019-04-21T19:14:55.035Z,27.13
2019-04-21T19:17:58.126Z,28.32
2019-04-21T19:20:01.926Z,27.52
2019-04-21T19:22:31.220Z,27.85
2019-04-21T19:24:59.702Z,31.15
2019-04-21T19:27:28.142Z,29.77
2019-04-21T19:30:05.782Z,28.65
2019-04-21T19:32:28.813Z,30.00
2019-04-21T19:34:47.397Z,28.23
2019-04-21T19:37:18.932Z,27.58
2019-04-21T19:39:58.927Z,28.52
2019-04-21T19:42:25.622Z,29.72
2019-04-21T19:45:03.311Z,28.75
2019-04-21T19:47:41.130Z,30.48
2019-04-21T19:50:05.976Z,31.17
2019-04-21T19:52:31.927Z,31.35
2019-04-21T19:54:50.736Z,29.63
2019-04-21T19:57:20.920Z,30.77
2019-04-21T19:59:55.333Z,30.40
2019-04-21T20:02:22.420Z,29.23
2019-04-21T20:05:00.802Z,29.30
2019-04-21T20:07:37.803Z,29.67
2019-04-21T20:10:15.484Z,28.03
2019-04-21T20:13:06.424Z,30.52
2019-04-21T20:15:21.830Z,28.37
2019-04-21T20:17:42.648Z,29.30
2019-04-21T20:19:58.254Z,28.40
2019-04-21T20:22:32.657Z,28.13
2019-04-21T20:25:04.950Z,27.70
2019-04-21T20:27:40.929Z,28.87
2019-04-21T20:30:16.165Z,30.40
2019-04-21T20:32:48.853Z,27.77
2019-04-21T20:35:21.233Z,28.83
2019-04-21T20:37:47.874Z,28.37
2019-04-21T20:40:10.114Z,28.83
2019-04-21T20:42:42.529Z,29.23
2019-04-21T20:47:41.322Z,27.93
2019-04-21T20:50:19.639Z,28.33
2019-04-21T20:52:55.175Z,28.70
2019-04-21T20:55:19.987Z,27.33
2019-04-21T20:57:53.786Z,29.07
2019-04-21T21:00:32.641Z,28.00
2019-04-21T21:03:07.084Z,29.37
2019-04-21T21:05:28.404Z,28.07
2019-04-21T21:08:13.614Z,28.83
2019-04-21T21:10:34.736Z,28.17
2019-04-21T21:13:14.261Z,29.07
2019-04-21T21:15:42.297Z,28.27
2019-04-21T21:18:22.728Z,28.77
2019-04-21T21:20:43.656Z,29.97
2019-04-21T21:23:05.755Z,29.60
2019-04-21T21:25:46.242Z,28.93
2019-04-21T21:28:04.271Z,28.33
2019-04-21T21:30:41.505Z,29.17
2019-04-21T21:33:15.349Z,29.63
2019-04-21T21:35:37.942Z,29.27
2019-04-21T21:38:21.293Z,29.60
2019-04-21T21:40:45.612Z,28.60
2019-04-21T21:43:01.524Z,27.93
2019-04-21T21:45:40.168Z,28.70
2019-04-21T21:48:20.558Z,29.10
2019-04-21T21:50:45.664Z,29.23
2019-04-21T21:53:13.207Z,28.87
2019-04-21T21:55:35.870Z,29.63
2019-04-21T21:58:06.437Z,28.60
2019-04-21T22:00:42.031Z,29.93
2019-04-21T22:03:17.529Z,29.10
2019-04-21T22:05:46.541Z,28.50
2019-04-21T22:08:10.451Z,29.93
2019-04-21T22:10:41.204Z,29.33
2019-04-21T22:13:14.695Z,30.57
2019-04-21T22:15:41.639Z,29.53
2019-04-21T22:18:31.453Z,29.60
2019-04-21T22:20:57.480Z,30.00
2019-04-21T22:23:24.131Z,30.13
2019-04-21T22:25:45.372Z,30.70
2019-04-21T22:28:14.157Z,31.40
2019-04-21T22:30:47.550Z,30.40
2019-04-21T22:33:17.524Z,30.97
2019-04-21T22:35:53.328Z,30.40
2019-04-21T22:38:31.034Z,31.80
2019-04-21T22:41:02.944Z,31.73
2019-04-21T22:43:25.008Z,31.57
2019-04-21T22:45:49.501Z,32.53
2019-04-21T22:48:21.726Z,31.90
2019-04-21T22:50:50.662Z,31.00
2019-04-21T22:53:21.441Z,30.37
2019-04-21T22:55:57.238Z,29.37
2019-04-21T22:58:28.252Z,30.87
2019-04-21T23:00:57.139Z,31.03
2019-04-21T23:03:25.205Z,31.13
2019-04-21T23:05:55.914Z,31.67
2019-04-21T23:08:31.780Z,31.40
2019-04-21T23:10:59.854Z,31.53
2019-04-21T23:13:28.577Z,31.87
2019-04-21T23:16:00.787Z,29.93
2019-04-21T23:18:45.074Z,33.23
2019-04-21T23:21:14.724Z,30.73
2019-04-21T23:23:54.642Z,31.10
2019-04-21T23:26:21.018Z,31.33
2019-04-21T23:28:50.689Z,32.40
2019-04-21T23:31:24.482Z,31.30
2019-04-21T23:33:34.621Z,32.23
2019-04-21T23:36:13.001Z,31.17
2019-04-21T23:38:43.526Z,30.97
2019-04-21T23:41:08.985Z,32.17
2019-04-21T23:43:38.152Z,31.20
2019-04-21T23:46:10.397Z,31.73
2019-04-21T23:48:55.870Z,31.40
2019-04-21T23:51:21.456Z,31.87
2019-04-21T23:53:41.535Z,31.90
2019-04-21T23:56:15.376Z,32.13
2019-04-21T23:58:44.856Z,31.30
